Search for airport 
image banner adimage banner adimage banner ad
image banner ad

D86 - Sequoia Field

Located in Visalia, United States

ICAO - D86, IATA -

Data provided by Airmate  

General information

Coordinates: N36°26'53" W119°19'7"
Elevation is 313 feet MSL.
Magnetic variation is 15° East
View others Airports in California

Operational data

Special qualification required
Current time UTC:
Current local time:
Weather at : KVIS - Visalia Muni ( 16 km )
METAR: KVIS 141156Z AUTO 28004KT 10SM CLR 18/14 A2997 RMK AO2 SLP151 T01780139 10256 20178 53013
TAF: KVIS 141120Z 1412/1512 30009KT P6SM SKC FM150200 31013G19KT P6SM SKC
View NOTAMs / SUP AIP / TFR affecting this airport [VIEW]
Communications frequencies: [VIEW]

Runways:

RWY identifierQFULength (ft)Width (ft)SurfaceLDA (ft)
13301260ASPH
31301260ASPH

Airport contact information

Address: Visalia United States

Satellite view of D86